createdAt,value
2018-09-11T00:01:44.229Z,82.30
2018-09-11T00:04:12.358Z,82.50
2018-09-11T00:06:40.517Z,82.60
2018-09-11T00:09:09.992Z,82.70
2018-09-11T00:11:38.120Z,82.80
2018-09-11T00:14:06.342Z,83.10
2018-09-11T00:16:34.483Z,83.50
2018-09-11T00:19:02.598Z,83.20
2018-09-11T00:21:30.763Z,83.50
2018-09-11T00:23:58.915Z,83.50
2018-09-11T00:26:27.038Z,83.30
2018-09-11T00:28:55.161Z,83.40
2018-09-11T00:31:23.280Z,83.40
2018-09-11T00:33:51.478Z,83.30
2018-09-11T00:36:19.569Z,83.60
2018-09-11T00:38:47.700Z,83.90
2018-09-11T00:41:15.804Z,84.20
2018-09-11T00:43:43.932Z,84.30
2018-09-11T00:46:12.124Z,84.60
2018-09-11T00:48:40.273Z,84.60
2018-09-11T00:51:08.414Z,85.60
2018-09-11T00:53:36.529Z,85.10
2018-09-11T00:56:04.629Z,85.70
2018-09-11T00:58:32.754Z,85.80
2018-09-11T01:01:00.873Z,86.20
2018-09-11T01:03:29.012Z,86.40
2018-09-11T01:05:57.111Z,86.60
2018-09-11T01:08:25.238Z,86.80
2018-09-11T01:10:53.404Z,86.90
2018-09-11T01:13:21.531Z,87.10
2018-09-11T01:15:49.738Z,87.20
2018-09-11T01:18:17.894Z,87.30
2018-09-11T01:20:46.015Z,87.40
2018-09-11T01:23:14.105Z,87.60
2018-09-11T01:25:42.237Z,87.70
2018-09-11T01:28:10.351Z,87.80
2018-09-11T01:30:38.478Z,87.70
2018-09-11T01:33:06.589Z,87.60
2018-09-11T01:35:34.717Z,87.60
2018-09-11T01:38:02.836Z,87.60
2018-09-11T01:40:30.945Z,87.70
2018-09-11T01:42:59.053Z,87.80
2018-09-11T01:45:27.259Z,87.70
2018-09-11T01:47:55.357Z,87.50
2018-09-11T01:50:23.450Z,87.50
2018-09-11T01:52:51.559Z,87.70
2018-09-11T01:55:19.682Z,87.70
2018-09-11T01:57:47.797Z,87.60
2018-09-11T02:00:17.898Z,87.60
2018-09-11T02:02:46.624Z,87.70
2018-09-11T02:05:14.731Z,87.60
2018-09-11T02:07:43.527Z,87.60
2018-09-11T02:10:12.037Z,87.80
2018-09-11T02:12:40.247Z,87.70
2018-09-11T02:15:09.039Z,87.40
2018-09-11T02:17:37.266Z,87.40
2018-09-11T02:20:05.407Z,87.40
2018-09-11T02:22:33.506Z,87.50
2018-09-11T02:25:01.624Z,87.70
2018-09-11T02:27:29.819Z,87.60
2018-09-11T02:29:57.945Z,87.80
2018-09-11T02:32:26.262Z,88.00
2018-09-11T02:34:54.370Z,88.30
2018-09-11T02:37:22.471Z,88.50
2018-09-11T02:39:50.617Z,88.40
2018-09-11T02:42:18.701Z,88.40
2018-09-11T02:44:46.857Z,88.80
2018-09-11T02:47:15.006Z,89.00
2018-09-11T02:49:43.128Z,89.10
2018-09-11T02:52:11.221Z,89.40
2018-09-11T02:54:39.349Z,89.40
2018-09-11T02:57:07.502Z,89.60
2018-09-11T02:59:35.623Z,89.60
2018-09-11T03:02:03.895Z,89.70
2018-09-11T03:04:31.995Z,89.60
2018-09-11T03:07:00.099Z,89.70
2018-09-11T03:09:28.218Z,89.70
2018-09-11T03:11:56.446Z,89.90
2018-09-11T03:14:24.541Z,89.80
2018-09-11T03:16:52.640Z,89.80
2018-09-11T03:19:20.721Z,89.90
2018-09-11T03:21:48.851Z,90.00
2018-09-11T03:24:16.928Z,90.00
2018-09-11T03:26:45.017Z,90.00
2018-09-11T03:29:13.117Z,90.10
2018-09-11T03:31:41.204Z,90.10
2018-09-11T03:34:09.309Z,90.10
2018-09-11T03:36:37.434Z,90.10
2018-09-11T03:39:07.441Z,90.10
2018-09-11T03:41:35.574Z,90.20
2018-09-11T03:44:03.839Z,90.20
2018-09-11T03:46:31.914Z,90.30
2018-09-11T03:49:00.018Z,90.30
2018-09-11T03:51:28.119Z,90.30
2018-09-11T03:53:56.205Z,90.30
2018-09-11T03:56:24.317Z,90.30
2018-09-11T03:58:52.559Z,90.40
2018-09-11T04:01:21.107Z,90.30
2018-09-11T04:03:49.207Z,90.40
2018-09-11T04:06:17.345Z,90.50
2018-09-11T04:08:45.498Z,90.50
2018-09-11T04:11:13.637Z,90.50
2018-09-11T04:13:41.736Z,90.50
2018-09-11T04:16:09.842Z,90.50
2018-09-11T04:18:37.946Z,90.50
2018-09-11T04:21:06.115Z,90.50
2018-09-11T04:23:34.358Z,90.50
2018-09-11T04:26:02.606Z,90.60
2018-09-11T04:28:30.715Z,90.60
2018-09-11T04:30:58.810Z,90.60
2018-09-11T04:33:26.917Z,90.60
2018-09-11T04:35:55.223Z,90.70
2018-09-11T04:38:23.334Z,90.70
2018-09-11T04:40:51.461Z,90.60
2018-09-11T04:43:19.547Z,90.70
2018-09-11T04:45:47.642Z,90.70
2018-09-11T04:48:15.738Z,90.70
2018-09-11T04:50:43.846Z,90.80
2018-09-11T04:53:11.941Z,90.70
2018-09-11T04:55:40.040Z,90.80
2018-09-11T04:58:08.274Z,90.60
2018-09-11T05:00:36.392Z,90.70
2018-09-11T05:03:04.643Z,91.00
2018-09-11T05:05:32.738Z,90.70
2018-09-11T05:08:00.866Z,90.70
2018-09-11T05:10:28.966Z,90.70
2018-09-11T05:12:57.066Z,90.60
2018-09-11T05:15:25.175Z,90.70
2018-09-11T05:17:53.273Z,90.70
2018-09-11T05:20:21.382Z,90.70
2018-09-11T05:22:49.473Z,90.90
2018-09-11T05:25:17.569Z,90.80
2018-09-11T05:27:45.694Z,90.70
2018-09-11T05:30:13.826Z,90.70
2018-09-11T05:32:41.939Z,90.50
2018-09-11T05:35:10.013Z,90.40
2018-09-11T05:37:38.121Z,90.30
2018-09-11T05:40:06.193Z,90.20
2018-09-11T05:42:34.296Z,90.10
2018-09-11T05:45:02.413Z,90.10
2018-09-11T05:47:30.504Z,90.10
2018-09-11T05:49:58.658Z,90.00
2018-09-11T05:52:26.754Z,89.70
2018-09-11T05:54:54.842Z,89.50
2018-09-11T05:57:23.012Z,89.30
2018-09-11T05:59:51.112Z,89.20
2018-09-11T06:02:19.219Z,89.10
2018-09-11T06:04:47.310Z,89.10
2018-09-11T06:07:15.428Z,89.00
2018-09-11T06:09:43.521Z,89.00
2018-09-11T06:12:11.612Z,89.10
2018-09-11T06:14:39.840Z,88.80
2018-09-11T06:17:07.970Z,88.70
2018-09-11T06:19:36.061Z,88.70
2018-09-11T06:22:04.186Z,88.70
2018-09-11T06:24:32.379Z,88.60
2018-09-11T06:27:00.462Z,88.40
2018-09-11T06:29:28.562Z,88.40
2018-09-11T06:31:56.654Z,88.40
2018-09-11T06:34:24.756Z,88.30
2018-09-11T06:36:52.868Z,88.30
2018-09-11T06:39:20.973Z,88.20
2018-09-11T06:41:49.074Z,88.60
2018-09-11T06:44:17.259Z,88.00
2018-09-11T06:46:47.379Z,88.00
2018-09-11T06:49:15.513Z,87.80
2018-09-11T06:51:43.614Z,87.60
2018-09-11T06:54:11.743Z,87.40
2018-09-11T06:56:39.847Z,87.10
2018-09-11T06:59:07.974Z,86.90
2018-09-11T07:01:36.093Z,86.70
2018-09-11T07:04:04.454Z,86.30
2018-09-11T07:06:32.557Z,85.50
2018-09-11T07:09:00.739Z,84.40
2018-09-11T07:11:28.833Z,83.90
2018-09-11T07:13:56.938Z,83.20
2018-09-11T07:16:25.049Z,82.50
2018-09-11T07:18:53.174Z,81.80
2018-09-11T07:21:21.307Z,81.40
2018-09-11T07:23:49.422Z,80.10
2018-09-11T07:26:17.524Z,79.30
2018-09-11T07:28:45.628Z,78.30
2018-09-11T07:31:13.818Z,77.00
2018-09-11T07:33:42.086Z,76.00
2018-09-11T07:36:10.190Z,75.30
2018-09-11T07:38:38.287Z,75.20
2018-09-11T07:41:06.754Z,74.40
2018-09-11T07:43:34.849Z,73.90
2018-09-11T07:46:02.934Z,73.70
2018-09-11T07:48:31.097Z,73.00
2018-09-11T07:50:59.218Z,72.60
2018-09-11T07:53:27.477Z,72.40
2018-09-11T07:55:55.572Z,71.90
2018-09-11T07:58:23.695Z,71.60
2018-09-11T08:00:51.913Z,71.20
2018-09-11T08:03:20.596Z,70.70
2018-09-11T08:05:48.703Z,70.20
2018-09-11T08:08:16.809Z,70.00
2018-09-11T08:10:44.981Z,69.40
2018-09-11T08:13:13.078Z,69.20
2018-09-11T08:15:41.184Z,69.40
2018-09-11T08:18:09.287Z,69.40
2018-09-11T08:20:37.378Z,69.40
2018-09-11T08:23:05.493Z,68.50
2018-09-11T08:25:33.593Z,68.60
2018-09-11T08:28:01.740Z,68.10
2018-09-11T08:30:31.053Z,67.90
2018-09-11T08:32:59.677Z,67.10
2018-09-11T08:35:27.829Z,67.00
2018-09-11T08:37:56.075Z,66.40
2018-09-11T08:40:24.166Z,65.60
2018-09-11T08:42:52.543Z,65.40
2018-09-11T08:45:20.628Z,65.20
2018-09-11T08:47:48.741Z,65.10
2018-09-11T08:50:16.852Z,64.70
2018-09-11T08:52:45.018Z,64.20
2018-09-11T08:55:13.066Z,63.50
2018-09-11T08:57:41.178Z,63.00
2018-09-11T09:00:09.620Z,62.40
2018-09-11T09:02:37.723Z,62.20
2018-09-11T09:05:05.873Z,62.00
2018-09-11T09:07:34.048Z,61.70
2018-09-11T09:10:02.179Z,61.60
2018-09-11T09:12:30.254Z,60.90
2018-09-11T09:14:58.374Z,60.10
2018-09-11T09:17:26.468Z,59.90
2018-09-11T09:19:54.601Z,59.50
2018-09-11T09:22:22.714Z,59.40
2018-09-11T09:24:50.812Z,59.50
2018-09-11T09:27:18.925Z,59.30
2018-09-11T09:29:47.018Z,59.00
2018-09-11T09:32:15.125Z,59.30
2018-09-11T09:34:43.238Z,58.90
2018-09-11T09:37:11.680Z,59.30
2018-09-11T09:39:39.972Z,59.20
2018-09-11T09:42:08.093Z,58.80
2018-09-11T09:44:36.259Z,58.30
2018-09-11T09:47:04.399Z,58.80
2018-09-11T09:49:32.490Z,58.20
2018-09-11T09:52:00.591Z,57.00
2018-09-11T09:54:28.698Z,57.20
2018-09-11T09:56:56.787Z,55.80
2018-09-11T09:59:24.896Z,55.40
2018-09-11T10:01:58.365Z,54.20
2018-09-11T10:04:26.466Z,53.10
2018-09-11T10:06:54.560Z,52.30
2018-09-11T10:09:22.666Z,52.00
2018-09-11T10:11:50.847Z,50.90
2018-09-11T10:14:18.876Z,50.80
2018-09-11T10:16:46.974Z,50.00
2018-09-11T10:19:15.083Z,49.40
2018-09-11T10:21:43.180Z,48.90
2018-09-11T10:24:11.296Z,47.90
2018-09-11T10:26:39.441Z,47.70
2018-09-11T10:29:07.565Z,47.40
2018-09-11T10:31:35.661Z,47.20
2018-09-11T10:34:03.846Z,46.80
2018-09-11T10:36:32.013Z,46.40
2018-09-11T10:39:00.409Z,46.30
2018-09-11T10:41:28.589Z,46.20
2018-09-11T10:43:56.712Z,45.90
2018-09-11T10:46:24.810Z,45.80
2018-09-11T10:48:53.004Z,45.00
2018-09-11T10:51:21.054Z,44.60
2018-09-11T10:53:49.192Z,43.70
2018-09-11T10:56:17.298Z,43.50
2018-09-11T10:58:45.475Z,43.60
2018-09-11T11:01:13.606Z,43.00
2018-09-11T11:03:41.710Z,42.80
2018-09-11T11:06:09.825Z,42.80
2018-09-11T11:08:38.530Z,42.70
2018-09-11T11:11:06.656Z,42.30
2018-09-11T11:13:34.762Z,41.60
2018-09-11T11:16:02.899Z,41.30
2018-09-11T11:18:30.994Z,41.50
2018-09-11T11:20:59.123Z,40.50
2018-09-11T11:23:27.277Z,39.80
2018-09-11T11:25:55.420Z,39.80
2018-09-11T11:28:23.541Z,39.70
2018-09-11T11:30:52.113Z,39.90
2018-09-11T11:33:20.193Z,39.60
2018-09-11T11:35:48.310Z,39.40
2018-09-11T11:38:16.478Z,38.60
2018-09-11T11:40:44.642Z,37.50
2018-09-11T11:43:12.782Z,38.00
2018-09-11T11:45:40.885Z,37.50
2018-09-11T11:48:09.029Z,37.50
2018-09-11T11:50:37.123Z,37.70
2018-09-11T11:53:05.311Z,37.70
2018-09-11T11:55:33.520Z,36.50
2018-09-11T11:58:01.550Z,36.30
2018-09-11T12:00:29.761Z,36.20
2018-09-11T12:02:57.873Z,35.60
2018-09-11T12:05:26.154Z,35.20
2018-09-11T12:07:54.353Z,34.40
2018-09-11T12:10:22.350Z,34.40
2018-09-11T12:12:50.506Z,34.60
2018-09-11T12:15:18.616Z,34.40
2018-09-11T12:17:46.774Z,33.80
2018-09-11T12:20:14.882Z,33.80
2018-09-11T12:22:42.970Z,33.30
2018-09-11T12:25:11.147Z,32.70
2018-09-11T12:27:39.249Z,32.00
2018-09-11T12:30:07.400Z,31.20
2018-09-11T12:32:35.499Z,31.00
2018-09-11T12:35:03.673Z,30.80
2018-09-11T12:37:31.779Z,30.30
2018-09-11T12:39:59.917Z,30.00
2018-09-11T12:42:28.081Z,29.60
2018-09-11T12:44:56.158Z,29.40
2018-09-11T12:47:24.548Z,29.20
2018-09-11T12:49:52.381Z,29.10
2018-09-11T12:52:20.502Z,28.90
2018-09-11T12:54:48.622Z,28.40
2018-09-11T12:57:16.753Z,27.80
2018-09-11T12:59:44.858Z,27.70
2018-09-11T13:02:12.973Z,27.30
2018-09-11T13:04:41.122Z,27.10
2018-09-11T13:07:09.305Z,27.20
2018-09-11T13:09:37.526Z,27.20
2018-09-11T13:12:05.498Z,26.80
2018-09-11T13:14:33.665Z,26.60
2018-09-11T13:17:01.805Z,26.50
2018-09-11T13:19:29.914Z,26.00
2018-09-11T13:21:58.022Z,25.80
2018-09-11T13:24:26.199Z,25.50
2018-09-11T13:26:54.296Z,25.50
2018-09-11T13:29:22.417Z,25.50
2018-09-11T13:31:50.876Z,26.60
2018-09-11T13:34:18.942Z,26.70
2018-09-11T13:36:47.154Z,26.50
2018-09-11T13:39:15.271Z,26.40
2018-09-11T13:41:43.360Z,25.40
2018-09-11T13:44:11.493Z,25.20
2018-09-11T13:46:39.594Z,24.80
2018-09-11T13:49:07.726Z,24.20
2018-09-11T13:51:35.849Z,23.60
2018-09-11T13:54:03.962Z,22.20
2018-09-11T13:56:32.082Z,21.50
2018-09-11T13:59:00.177Z,21.40
2018-09-11T14:01:28.307Z,21.00
2018-09-11T14:03:56.447Z,20.70
2018-09-11T14:06:24.607Z,20.40
2018-09-11T14:08:52.701Z,20.10
2018-09-11T14:11:20.804Z,20.10
2018-09-11T14:13:48.970Z,20.30
2018-09-11T14:16:17.112Z,20.20
2018-09-11T14:18:45.222Z,20.10
2018-09-11T14:21:13.365Z,19.80
2018-09-11T14:23:41.450Z,19.50
2018-09-11T14:26:09.598Z,19.70
2018-09-11T14:28:37.733Z,19.10
2018-09-11T14:31:06.118Z,19.30
2018-09-11T14:33:34.222Z,18.80
2018-09-11T14:36:02.390Z,18.80
2018-09-11T14:38:30.509Z,19.50
2018-09-11T14:40:58.633Z,20.30
2018-09-11T14:43:26.822Z,20.80
2018-09-11T14:45:55.006Z,21.70
2018-09-11T14:48:23.153Z,22.00
2018-09-11T14:50:51.249Z,21.60
2018-09-11T14:53:19.381Z,21.50
2018-09-11T14:55:47.532Z,21.30
2018-09-11T14:58:15.592Z,22.70
2018-09-11T15:00:43.754Z,23.70
2018-09-11T15:03:11.873Z,24.90
2018-09-11T15:05:39.979Z,26.10
2018-09-11T15:08:08.155Z,26.50
2018-09-11T15:10:36.285Z,27.10
2018-09-11T15:13:04.421Z,27.20
2018-09-11T15:15:32.639Z,27.00
2018-09-11T15:18:00.936Z,26.30
2018-09-11T15:20:29.108Z,26.20
2018-09-11T15:22:57.439Z,26.20
2018-09-11T15:25:25.542Z,26.60
2018-09-11T15:27:53.662Z,26.70
2018-09-11T15:30:21.886Z,26.60
2018-09-11T15:32:49.969Z,26.40
2018-09-11T15:35:18.105Z,27.40
2018-09-11T15:37:46.263Z,27.70
2018-09-11T15:40:14.366Z,28.50
2018-09-11T15:42:42.565Z,28.80
2018-09-11T15:45:10.695Z,28.70
2018-09-11T15:47:38.885Z,28.70
2018-09-11T15:50:07.279Z,27.90
2018-09-11T15:52:35.417Z,27.40
2018-09-11T15:55:03.522Z,27.60
2018-09-11T15:57:31.638Z,27.60
2018-09-11T16:00:00.683Z,26.90
2018-09-11T16:02:29.077Z,26.90
2018-09-11T16:04:57.270Z,27.20
2018-09-11T16:07:25.377Z,27.30
2018-09-11T16:09:53.517Z,27.40
2018-09-11T16:12:21.629Z,27.60
2018-09-11T16:14:49.726Z,27.90
2018-09-11T16:17:17.838Z,28.10
2018-09-11T16:19:45.951Z,28.20
2018-09-11T16:22:14.149Z,28.30
2018-09-11T16:24:42.179Z,28.30
2018-09-11T16:27:10.289Z,28.70
2018-09-11T16:29:38.475Z,28.70
2018-09-11T16:32:06.578Z,28.90
2018-09-11T16:34:34.690Z,29.00
2018-09-11T16:37:02.953Z,28.90
2018-09-11T16:39:31.057Z,28.90
2018-09-11T16:41:59.184Z,29.10
2018-09-11T16:44:27.290Z,28.90
2018-09-11T16:46:55.402Z,29.00
2018-09-11T16:49:23.572Z,29.20
2018-09-11T16:51:51.666Z,29.30
2018-09-11T16:54:19.842Z,29.60
2018-09-11T16:56:47.955Z,29.70
2018-09-11T16:59:16.067Z,29.80
2018-09-11T17:01:44.225Z,30.20
2018-09-11T17:04:12.355Z,30.40
2018-09-11T17:06:40.470Z,30.50
2018-09-11T17:09:09.397Z,31.20
2018-09-11T17:11:37.511Z,31.30
2018-09-11T17:14:05.855Z,31.80
2018-09-11T17:16:34.294Z,31.90
2018-09-11T17:19:02.392Z,32.40
2018-09-11T17:21:30.489Z,33.20
2018-09-11T17:23:58.585Z,32.70
2018-09-11T17:26:26.698Z,33.70
2018-09-11T17:28:54.802Z,33.40
2018-09-11T17:31:22.903Z,33.80
2018-09-11T17:33:50.997Z,34.20
2018-09-11T17:36:19.130Z,34.80
2018-09-11T17:38:47.222Z,35.40
2018-09-11T17:41:15.354Z,36.00
2018-09-11T17:43:43.535Z,36.20
2018-09-11T17:46:11.658Z,36.60
2018-09-11T17:48:39.775Z,37.00
2018-09-11T17:51:07.934Z,37.30
2018-09-11T17:53:36.135Z,37.70
2018-09-11T17:56:04.233Z,38.10
2018-09-11T17:58:32.488Z,38.50
2018-09-11T18:01:01.155Z,38.80
2018-09-11T18:03:29.287Z,39.20
2018-09-11T18:05:57.381Z,39.50
2018-09-11T18:08:25.493Z,39.90
2018-09-11T18:10:53.619Z,40.20
2018-09-11T18:13:21.705Z,40.50
2018-09-11T18:15:49.888Z,40.90
2018-09-11T18:18:18.021Z,41.20
2018-09-11T18:20:46.113Z,41.60
2018-09-11T18:23:14.205Z,41.90
2018-09-11T18:25:42.318Z,42.10
2018-09-11T18:28:10.419Z,42.40
2018-09-11T18:30:38.534Z,42.90
2018-09-11T18:33:06.801Z,43.20
2018-09-11T18:35:34.886Z,43.50
2018-09-11T18:38:03.014Z,44.00
2018-09-11T18:40:31.129Z,44.30
2018-09-11T18:42:59.213Z,44.70
2018-09-11T18:45:27.309Z,44.80
2018-09-11T18:47:55.402Z,45.00
2018-09-11T18:50:23.572Z,45.40
2018-09-11T18:52:51.677Z,45.60
2018-09-11T18:55:19.770Z,46.20
2018-09-11T18:57:47.964Z,46.40
2018-09-11T19:00:19.274Z,46.60
2018-09-11T19:02:47.383Z,46.70
2018-09-11T19:05:15.524Z,47.10
2018-09-11T19:07:43.591Z,47.50
2018-09-11T19:10:11.741Z,47.90
2018-09-11T19:12:39.862Z,48.00
2018-09-11T19:15:07.978Z,48.30
2018-09-11T19:17:36.085Z,48.50
2018-09-11T19:20:04.573Z,48.80
2018-09-11T19:22:32.646Z,49.30
2018-09-11T19:25:00.766Z,49.50
2018-09-11T19:27:28.870Z,50.20
2018-09-11T19:29:57.002Z,50.30
2018-09-11T19:32:25.119Z,50.80
2018-09-11T19:34:53.235Z,51.00
2018-09-11T19:37:21.349Z,51.70
2018-09-11T19:39:49.567Z,52.10
2018-09-11T19:42:17.683Z,52.20
2018-09-11T19:44:45.935Z,53.90
2018-09-11T19:47:14.038Z,54.00
2018-09-11T19:49:42.168Z,54.70
2018-09-11T19:52:10.318Z,55.00
2018-09-11T19:54:38.486Z,55.20
2018-09-11T19:57:06.577Z,55.40
2018-09-11T19:59:34.710Z,55.00
2018-09-11T20:02:02.841Z,55.80
2018-09-11T20:04:31.050Z,55.40
2018-09-11T20:06:59.155Z,55.20
2018-09-11T20:09:27.279Z,55.90
2018-09-11T20:11:55.371Z,56.50
2018-09-11T20:14:23.674Z,56.60
2018-09-11T20:16:51.765Z,56.80
2018-09-11T20:19:19.862Z,56.70
2018-09-11T20:21:48.041Z,56.20
2018-09-11T20:24:16.157Z,55.80
2018-09-11T20:26:44.455Z,55.90
2018-09-11T20:29:12.550Z,55.40
2018-09-11T20:31:40.706Z,55.60
2018-09-11T20:34:09.034Z,55.70
2018-09-11T20:36:37.148Z,55.80
2018-09-11T20:39:08.339Z,55.70
2018-09-11T20:41:36.470Z,55.80
2018-09-11T20:44:04.576Z,55.70
2018-09-11T20:46:32.755Z,55.80
2018-09-11T20:49:00.918Z,55.90
2018-09-11T20:51:29.046Z,56.20
2018-09-11T20:53:57.156Z,56.10
2018-09-11T20:56:25.298Z,56.90
2018-09-11T20:58:53.394Z,56.10
2018-09-11T21:01:21.514Z,56.30
2018-09-11T21:03:49.645Z,56.60
2018-09-11T21:06:17.742Z,56.70
2018-09-11T21:08:45.892Z,57.00
2018-09-11T21:11:14.014Z,57.20
2018-09-11T21:13:42.099Z,57.40
2018-09-11T21:16:10.235Z,57.80
2018-09-11T21:18:38.342Z,58.00
2018-09-11T21:21:06.653Z,58.10
2018-09-11T21:23:34.766Z,58.50
2018-09-11T21:26:02.881Z,58.50
2018-09-11T21:28:31.014Z,58.60
2018-09-11T21:30:59.188Z,58.70
2018-09-11T21:33:27.330Z,58.80
2018-09-11T21:35:55.446Z,58.90
2018-09-11T21:38:23.537Z,59.00
2018-09-11T21:40:51.679Z,59.10
2018-09-11T21:43:19.760Z,59.10
2018-09-11T21:45:47.879Z,59.40
2018-09-11T21:48:16.014Z,59.40
2018-09-11T21:50:44.145Z,59.40
2018-09-11T21:53:12.239Z,59.50
2018-09-11T21:55:40.342Z,59.70
2018-09-11T21:58:08.442Z,59.90
2018-09-11T22:00:40.793Z,59.60
2018-09-11T22:03:08.900Z,59.90
2018-09-11T22:05:37.092Z,59.80
2018-09-11T22:08:05.185Z,59.80
2018-09-11T22:10:33.289Z,60.10
2018-09-11T22:13:01.417Z,60.20
2018-09-11T22:15:29.494Z,60.30
2018-09-11T22:17:57.601Z,60.30
2018-09-11T22:20:25.734Z,60.40
2018-09-11T22:22:53.837Z,60.50
2018-09-11T22:25:21.943Z,60.70
2018-09-11T22:27:50.108Z,60.70
2018-09-11T22:30:18.219Z,60.80
2018-09-11T22:32:46.338Z,60.80
2018-09-11T22:35:14.453Z,60.90
2018-09-11T22:37:42.558Z,61.10
2018-09-11T22:40:10.671Z,61.30
2018-09-11T22:42:38.786Z,61.40
2018-09-11T22:45:07.334Z,61.40
2018-09-11T22:47:35.442Z,61.70
2018-09-11T22:50:03.779Z,62.00
2018-09-11T22:52:31.889Z,62.10
2018-09-11T22:54:59.993Z,62.30
2018-09-11T22:57:28.098Z,62.60
2018-09-11T22:59:56.189Z,62.70
2018-09-11T23:02:24.297Z,63.10
2018-09-11T23:04:52.484Z,63.20
2018-09-11T23:07:20.594Z,63.50
2018-09-11T23:09:48.683Z,63.70
2018-09-11T23:12:16.789Z,63.80
2018-09-11T23:14:44.883Z,64.10
2018-09-11T23:17:12.982Z,64.30
2018-09-11T23:19:41.077Z,64.50
2018-09-11T23:22:09.179Z,64.60
2018-09-11T23:24:37.279Z,64.80
2018-09-11T23:27:05.379Z,65.10
2018-09-11T23:29:33.462Z,65.90
2018-09-11T23:32:01.564Z,65.30
2018-09-11T23:34:29.682Z,65.50
2018-09-11T23:36:57.769Z,65.60
2018-09-11T23:39:25.902Z,65.90
2018-09-11T23:41:54.027Z,66.10
2018-09-11T23:44:22.134Z,66.40
2018-09-11T23:46:50.249Z,66.80
2018-09-11T23:49:18.346Z,67.10
2018-09-11T23:51:46.449Z,67.30
2018-09-11T23:54:14.537Z,67.60
2018-09-11T23:56:42.649Z,68.00
2018-09-11T23:59:10.747Z,68.20
